Time;durP1;ratioP1;P1;durP2;ratioP2;P2;SDS_P1;SDS_P2;PMS_P1;PMS_P2;Temp;Humidity;BMP_temperature;BMP_pressure;BME280_temperature;BME280_humidity;BME280_pressure;Samples;Min_cycle;Max_cycle;Signal;HPM_P1;HPM_P2
2024/03/15 00:00:00;;;;;;;20.30;18.13;;;11.00;85.60;;;;;;5038138;28;20180;-87
2024/03/15 00:02:26;;;;;;;19.20;17.33;;;11.00;85.70;;;;;;5055963;28;20195;-88
2024/03/15 00:04:52;;;;;;;18.03;16.43;;;11.00;85.70;;;;;;5038496;28;20249;-88
2024/03/15 00:07:18;;;;;;;18.03;16.33;;;11.00;85.80;;;;;;5038404;28;20207;-88
2024/03/15 00:09:44;;;;;;;18.50;16.80;;;11.00;85.80;;;;;;5056115;28;20176;-88
2024/03/15 00:12:10;;;;;;;19.07;17.17;;;11.00;85.80;;;;;;5055929;28;20222;-87
2024/03/15 00:14:37;;;;;;;20.50;18.40;;;11.00;85.70;;;;;;5056110;28;20222;-87
2024/03/15 00:17:03;;;;;;;17.53;15.93;;;11.00;85.90;;;;;;5037891;28;20732;-87
2024/03/15 00:19:28;;;;;;;20.33;18.23;;;11.00;85.70;;;;;;5055823;28;20206;-87
2024/03/15 00:21:54;;;;;;;20.00;17.97;;;11.00;85.80;;;;;;5055837;28;20214;-87
2024/03/15 00:24:19;;;;;;;18.13;16.43;;;10.90;86.00;;;;;;5038052;28;20202;-87
2024/03/15 00:26:46;;;;;;;19.17;17.43;;;10.90;86.00;;;;;;5055369;28;20572;-87
2024/03/15 00:29:12;;;;;;;19.73;17.80;;;10.90;86.10;;;;;;5055710;28;20172;-88
2024/03/15 00:31:41;;;;;;;18.53;16.83;;;10.90;86.10;;;;;;5055770;28;20686;-88
2024/03/15 00:34:07;;;;;;;18.77;16.87;;;10.80;86.20;;;;;;5055532;28;20169;-87
2024/03/15 00:36:33;;;;;;;19.30;17.37;;;10.80;86.20;;;;;;5055713;28;20182;-88
2024/03/15 00:38:59;;;;;;;19.37;17.43;;;10.80;86.30;;;;;;5055517;28;20176;-88
2024/03/15 00:41:25;;;;;;;27.63;25.23;;;10.80;86.40;;;;;;5055419;28;20570;-88
2024/03/15 00:43:53;;;;;;;26.13;24.03;;;10.80;86.60;;;;;;5055666;28;20172;-88
2024/03/15 00:46:20;;;;;;;27.53;24.97;;;10.80;86.60;;;;;;5055288;28;20260;-88
2024/03/15 00:48:46;;;;;;;27.07;24.87;;;10.80;86.50;;;;;;5055626;28;20164;-88
2024/03/15 00:51:13;;;;;;;26.13;23.90;;;10.80;86.60;;;;;;5037285;28;20226;-87
2024/03/15 00:53:38;;;;;;;26.37;24.00;;;10.80;86.60;;;;;;5055336;28;20520;-88
2024/03/15 00:56:04;;;;;;;27.23;24.50;;;10.80;86.70;;;;;;5038147;28;20172;-88
2024/03/15 00:58:30;;;;;;;27.53;25.07;;;10.80;86.80;;;;;;5037220;28;20172;-88
2024/03/15 01:00:56;;;;;;;26.57;24.27;;;10.70;86.90;;;;;;5055085;28;20176;-88
2024/03/15 01:03:23;;;;;;;27.70;25.17;;;10.70;87.00;;;;;;5037003;28;20182;-88
2024/03/15 01:05:48;;;;;;;27.63;25.20;;;10.70;87.10;;;;;;5055027;28;20199;-88
2024/03/15 01:08:14;;;;;;;27.23;24.93;;;10.70;87.10;;;;;;5055081;28;20235;-88
2024/03/15 01:10:40;;;;;;;28.07;25.50;;;10.70;87.10;;;;;;5055123;28;20194;-88
2024/03/15 01:13:05;;;;;;;27.47;25.13;;;10.70;87.20;;;;;;5036962;28;20215;-88
2024/03/15 01:15:31;;;;;;;28.83;26.33;;;10.70;87.20;;;;;;5054829;28;20218;-88
2024/03/15 01:17:57;;;;;;;26.77;24.50;;;10.70;87.20;;;;;;5055126;28;20674;-87
2024/03/15 01:20:23;;;;;;;27.67;25.00;;;10.70;87.30;;;;;;5054872;28;20522;-87
2024/03/15 01:22:49;;;;;;;28.07;25.73;;;10.70;87.30;;;;;;5054620;28;20240;-88
2024/03/15 01:25:14;;;;;;;27.07;24.60;;;10.70;87.30;;;;;;5054717;28;20242;-87
2024/03/15 01:27:40;;;;;;;26.80;24.40;;;10.70;87.30;;;;;;5036649;28;20672;-88
2024/03/15 01:30:09;;;;;;;27.30;24.60;;;10.70;87.40;;;;;;5054537;28;20190;-88
2024/03/15 01:32:35;;;;;;;27.17;24.83;;;10.70;87.40;;;;;;5036425;28;20283;-88
2024/03/15 01:35:01;;;;;;;27.37;25.07;;;10.70;87.40;;;;;;5054271;28;20182;-88
2024/03/15 01:37:27;;;;;;;27.30;24.90;;;10.70;87.40;;;;;;5035864;28;20192;-89
2024/03/15 01:39:53;;;;;;;27.73;25.03;;;10.70;87.40;;;;;;5054179;28;20206;-88
2024/03/15 01:42:18;;;;;;;28.53;25.93;;;10.70;87.40;;;;;;5036405;28;20204;-88
2024/03/15 01:44:57;;;;;;;28.60;26.17;;;10.70;87.50;;;;;;5054308;28;20234;-88
2024/03/15 01:47:26;;;;;;;21.00;18.90;;;10.60;87.50;;;;;;5036161;28;20203;-87
2024/03/15 01:49:53;;;;;;;20.20;18.07;;;10.70;87.50;;;;;;5036112;28;20214;-88
2024/03/15 01:52:20;;;;;;;20.30;18.43;;;10.60;87.50;;;;;;5054294;28;20196;-88
2024/03/15 01:54:46;;;;;;;19.97;18.03;;;10.60;87.50;;;;;;5036801;28;20187;-88
2024/03/15 01:57:13;;;;;;;20.87;18.87;;;10.50;87.50;;;;;;5054003;28;20259;-88
2024/03/15 01:59:39;;;;;;;21.47;19.43;;;10.50;87.50;;;;;;5054032;28;20180;-88
2024/03/15 02:02:05;;;;;;;22.10;20.00;;;10.50;87.60;;;;;;5053861;28;20199;-87
2024/03/15 02:04:31;;;;;;;20.27;18.23;;;10.40;87.60;;;;;;5036152;28;20233;-88
2024/03/15 02:06:59;;;;;;;21.67;19.37;;;10.40;87.50;;;;;;5036182;28;20583;-88
2024/03/15 02:09:28;;;;;;;20.97;19.03;;;10.40;87.60;;;;;;5036079;28;20640;-88
2024/03/15 02:11:57;;;;;;;22.30;20.30;;;10.30;87.70;;;;;;5053966;28;20200;-88
2024/03/15 02:14:23;;;;;;;22.50;20.27;;;10.30;87.80;;;;;;5036173;28;20182;-88
2024/03/15 02:16:49;;;;;;;25.93;19.70;;;10.30;87.90;;;;;;5053900;28;20254;-88
2024/03/15 02:19:14;;;;;;;20.87;18.77;;;10.40;88.00;;;;;;5054055;28;20708;-88
2024/03/15 02:21:47;;;;;;;20.40;18.47;;;10.30;88.10;;;;;;5035943;28;20242;-88
2024/03/15 02:24:13;;;;;;;22.43;19.33;;;10.30;88.10;;;;;;5036301;28;20188;-88
2024/03/15 02:26:39;;;;;;;20.40;18.33;;;10.30;88.10;;;;;;5053881;28;20547;-88
2024/03/15 02:29:05;;;;;;;21.13;19.10;;;10.30;88.10;;;;;;5036021;28;20180;-88
2024/03/15 02:31:31;;;;;;;21.87;18.60;;;10.30;88.10;;;;;;5035820;28;20203;-88
2024/03/15 02:33:57;;;;;;;21.73;19.53;;;10.20;88.10;;;;;;5054106;28;20640;-88
2024/03/15 02:36:23;;;;;;;22.60;19.03;;;10.30;88.10;;;;;;5053749;28;20245;-88
2024/03/15 02:38:48;;;;;;;22.97;20.30;;;10.20;88.20;;;;;;5053712;28;20288;-87
2024/03/15 02:41:15;;;;;;;21.03;19.00;;;10.10;88.20;;;;;;5053930;28;20200;-87
2024/03/15 02:43:41;;;;;;;22.20;20.07;;;10.20;88.30;;;;;;5035981;28;20297;-88
2024/03/15 02:46:07;;;;;;;21.20;19.10;;;10.30;88.20;;;;;;5053851;28;20179;-88
2024/03/15 02:48:32;;;;;;;22.67;20.30;;;10.30;88.20;;;;;;5035606;28;20168;-88
2024/03/15 02:50:59;;;;;;;21.60;19.60;;;10.30;88.30;;;;;;5039586;28;20607;-87
2024/03/15 02:53:25;;;;;;;21.20;19.17;;;10.30;88.20;;;;;;5057673;28;20542;-88
2024/03/15 02:55:50;;;;;;;19.87;18.00;;;10.30;88.10;;;;;;5039573;28;20180;-88
2024/03/15 02:58:19;;;;;;;21.23;19.17;;;10.30;88.10;;;;;;5057377;28;20180;-87
2024/03/15 03:00:46;;;;;;;21.63;19.53;;;10.30;88.30;;;;;;5057313;28;20652;-87
2024/03/15 03:03:11;;;;;;;20.93;18.93;;;10.20;88.30;;;;;;5057422;28;20176;-88
2024/03/15 03:05:37;;;;;;;21.63;19.63;;;10.20;88.40;;;;;;5057722;28;20187;-88
2024/03/15 03:08:04;;;;;;;21.53;19.43;;;10.20;88.50;;;;;;5039167;28;20208;-87
2024/03/15 03:10:30;;;;;;;22.33;20.23;;;10.20;88.50;;;;;;5057317;28;20180;-88
2024/03/15 03:12:56;;;;;;;21.83;19.80;;;10.20;88.70;;;;;;5056982;28;20578;-87
2024/03/15 03:15:22;;;;;;;20.97;19.17;;;10.20;88.70;;;;;;5057223;28;20222;-87
2024/03/15 03:17:47;;;;;;;29.30;26.93;;;10.20;88.70;;;;;;5057216;28;20643;-88
2024/03/15 03:20:19;;;;;;;30.27;27.57;;;10.20;88.70;;;;;;5056992;28;20180;-88
2024/03/15 03:22:45;;;;;;;29.03;26.47;;;10.20;88.50;;;;;;5039165;28;20285;-87
2024/03/15 03:25:11;;;;;;;29.47;26.83;;;10.20;88.60;;;;;;5057246;28;20260;-88
2024/03/15 03:27:36;;;;;;;28.83;26.17;;;10.20;88.60;;;;;;5056770;28;20295;-87
2024/03/15 03:30:03;;;;;;;29.90;27.37;;;10.10;88.70;;;;;;5057112;28;20214;-88
2024/03/15 03:32:29;;;;;;;28.53;25.67;;;10.10;88.80;;;;;;5038679;28;20199;-88
2024/03/15 03:34:54;;;;;;;28.70;26.03;;;10.10;88.90;;;;;;5038649;28;20207;-88
2024/03/15 03:37:20;;;;;;;30.33;27.10;;;10.10;89.00;;;;;;5057150;28;20263;-87
2024/03/15 03:39:46;;;;;;;28.53;26.20;;;10.20;88.90;;;;;;5038932;28;20179;-88
2024/03/15 03:42:11;;;;;;;28.23;25.73;;;10.20;88.80;;;;;;5056557;28;20263;-88
2024/03/15 03:44:38;;;;;;;28.87;26.37;;;10.30;88.60;;;;;;5038522;28;20558;-88
2024/03/15 03:47:03;;;;;;;30.50;27.90;;;10.20;88.50;;;;;;5056167;28;20210;-87
2024/03/15 03:49:29;;;;;;;29.73;27.03;;;10.20;88.60;;;;;;5038372;28;20183;-88
2024/03/15 03:51:57;;;;;;;30.93;28.07;;;10.10;88.80;;;;;;5056038;28;20207;-88
2024/03/15 03:54:24;;;;;;;30.67;27.80;;;10.20;88.90;;;;;;5056499;28;20603;-88
2024/03/15 03:56:50;;;;;;;28.93;26.43;;;10.30;88.80;;;;;;5038247;28;20188;-88
2024/03/15 03:59:16;;;;;;;28.37;26.07;;;10.30;88.40;;;;;;5038299;28;20559;-88
2024/03/15 04:01:41;;;;;;;29.53;26.93;;;10.20;88.60;;;;;;5055423;28;20196;-87
2024/03/15 04:04:07;;;;;;;29.67;27.10;;;10.30;88.80;;;;;;5056407;28;20180;-88
2024/03/15 04:06:33;;;;;;;28.53;26.13;;;10.30;88.30;;;;;;5056116;28;20215;-88
2024/03/15 04:08:58;;;;;;;31.23;28.50;;;10.30;88.30;;;;;;5038467;28;20176;-88
2024/03/15 04:11:24;;;;;;;30.97;28.10;;;10.30;88.40;;;;;;5056095;28;20258;-88
2024/03/15 04:13:52;;;;;;;30.73;28.00;;;10.20;88.50;;;;;;5038180;28;20177;-88
2024/03/15 04:16:18;;;;;;;30.33;27.93;;;10.30;88.50;;;;;;5038400;28;20631;-88
2024/03/15 04:18:44;;;;;;;31.03;28.33;;;10.40;88.50;;;;;;5038315;28;20183;-88
2024/03/15 04:21:10;;;;;;;32.17;29.37;;;10.40;88.10;;;;;;5037909;28;20199;-89
2024/03/15 04:23:36;;;;;;;30.07;27.37;;;10.40;87.90;;;;;;5055964;28;20164;-88
2024/03/15 04:26:02;;;;;;;30.70;27.90;;;10.30;88.20;;;;;;5037936;28;20208;-88
2024/03/15 04:28:28;;;;;;;23.17;20.93;;;10.20;88.40;;;;;;5055682;28;20176;-88
2024/03/15 04:30:57;;;;;;;22.90;20.50;;;10.10;88.70;;;;;;5037736;28;20547;-88
2024/03/15 04:33:23;;;;;;;22.03;19.70;;;10.10;88.80;;;;;;5037532;28;20605;-85
2024/03/15 04:35:50;;;;;;;22.47;20.30;;;10.10;88.90;;;;;;5055508;28;20168;-88
2024/03/15 04:38:16;;;;;;;22.67;20.43;;;10.00;89.00;;;;;;5038198;28;20179;-88
2024/03/15 04:40:41;;;;;;;22.50;20.10;;;10.00;89.10;;;;;;5055586;28;20187;-88
2024/03/15 04:43:07;;;;;;;22.63;20.53;;;10.00;89.00;;;;;;5055634;28;20192;-87
2024/03/15 04:45:33;;;;;;;23.87;21.47;;;10.00;89.10;;;;;;5037310;28;20191;-87
2024/03/15 04:48:00;;;;;;;24.63;21.97;;;10.00;89.20;;;;;;5055423;28;20199;-87
2024/03/15 04:50:26;;;;;;;23.87;21.60;;;9.90;89.20;;;;;;5037353;28;20179;-87
2024/03/15 04:52:52;;;;;;;23.73;21.43;;;10.00;89.30;;;;;;5037345;28;20188;-87
2024/03/15 04:55:19;;;;;;;24.40;21.37;;;10.00;89.10;;;;;;5055279;28;20191;-87
2024/03/15 04:57:47;;;;;;;24.40;22.27;;;10.00;89.10;;;;;;5055209;28;20196;-87
2024/03/15 05:00:18;;;;;;;23.67;21.30;;;9.90;89.10;;;;;;5037228;28;20549;-87
2024/03/15 05:02:48;;;;;;;25.33;22.73;;;9.90;89.20;;;;;;5055128;28;20196;-87
2024/03/15 05:05:16;;;;;;;24.80;21.73;;;9.90;89.40;;;;;;5055002;28;20226;-87
2024/03/15 05:07:42;;;;;;;23.97;21.60;;;10.00;89.50;;;;;;5055184;28;20274;-87
2024/03/15 05:10:11;;;;;;;24.47;21.70;;;9.90;89.50;;;;;;5036973;28;20659;-87
2024/03/15 05:12:38;;;;;;;23.40;21.00;;;9.90;89.60;;;;;;5053865;28;20210;-87
2024/03/15 05:15:04;;;;;;;22.33;20.17;;;9.90;89.60;;;;;;5054941;28;20550;-87
2024/03/15 05:17:30;;;;;;;22.43;20.33;;;9.90;89.70;;;;;;5054730;28;20643;-87
2024/03/15 05:19:55;;;;;;;23.20;20.83;;;9.90;89.70;;;;;;5036689;28;20172;-87
2024/03/15 05:22:24;;;;;;;23.83;21.33;;;10.00;89.80;;;;;;5036991;28;20192;-88
2024/03/15 05:24:50;;;;;;;23.33;20.93;;;10.00;89.90;;;;;;5036805;28;20186;-87
2024/03/15 05:27:15;;;;;;;24.80;21.17;;;10.00;89.90;;;;;;5036573;28;20200;-88
2024/03/15 05:29:41;;;;;;;23.03;20.00;;;10.00;89.90;;;;;;5054625;28;20221;-88
2024/03/15 05:32:07;;;;;;;22.87;20.43;;;10.00;89.90;;;;;;5054673;28;20196;-87
2024/03/15 05:34:32;;;;;;;22.77;20.47;;;10.00;89.90;;;;;;5054388;28;20172;-87
2024/03/15 05:36:58;;;;;;;22.93;20.57;;;10.00;90.00;;;;;;5054671;28;20172;-87
2024/03/15 05:39:24;;;;;;;25.50;21.37;;;10.00;89.90;;;;;;5036826;28;20559;-87
2024/03/15 05:41:49;;;;;;;21.87;19.70;;;10.00;89.90;;;;;;5054394;28;20192;-88
2024/03/15 05:44:15;;;;;;;26.10;21.50;;;10.00;89.90;;;;;;5054256;28;20176;-88
2024/03/15 05:46:42;;;;;;;23.37;20.93;;;10.00;89.90;;;;;;5054109;28;20199;-88
2024/03/15 05:49:07;;;;;;;24.27;20.13;;;10.00;89.90;;;;;;5036387;28;20179;-87
2024/03/15 05:51:33;;;;;;;22.67;20.47;;;10.00;90.00;;;;;;5054154;28;20188;-87
2024/03/15 05:53:59;;;;;;;21.37;19.17;;;10.00;90.00;;;;;;5036372;28;20594;-88
2024/03/15 05:56:24;;;;;;;28.50;25.70;;;10.20;90.00;;;;;;5036349;28;20527;-88
2024/03/15 05:58:51;;;;;;;28.10;25.80;;;10.10;89.70;;;;;;5036272;28;20230;-87
2024/03/15 06:01:17;;;;;;;29.83;27.03;;;10.10;89.80;;;;;;5036039;28;20762;-88
2024/03/15 06:03:42;;;;;;;29.03;26.33;;;10.10;89.90;;;;;;5036260;28;20208;-88
2024/03/15 06:06:08;;;;;;;28.97;26.37;;;10.10;89.70;;;;;;5035997;28;20250;-88
2024/03/15 06:08:36;;;;;;;28.03;25.07;;;10.10;89.70;;;;;;5053928;28;20164;-88
2024/03/15 06:11:03;;;;;;;28.93;26.13;;;10.10;89.70;;;;;;5053878;28;20168;-88
2024/03/15 06:13:29;;;;;;;29.40;26.73;;;10.10;89.70;;;;;;5054266;28;20148;-88
2024/03/15 06:15:55;;;;;;;29.87;27.20;;;10.10;89.80;;;;;;5036312;28;20183;-88
2024/03/15 06:18:21;;;;;;;29.90;26.93;;;10.10;89.90;;;;;;5053716;28;20250;-88
2024/03/15 06:20:46;;;;;;;30.60;27.77;;;10.10;89.90;;;;;;5035881;28;20689;-88
2024/03/15 06:23:12;;;;;;;28.77;26.07;;;10.00;90.00;;;;;;5036012;28;20187;-88
2024/03/15 06:25:39;;;;;;;29.13;26.17;;;10.10;90.10;;;;;;5057740;28;20255;-88
2024/03/15 06:28:09;;;;;;;29.97;26.87;;;10.10;90.20;;;;;;5058276;28;20298;-88
2024/03/15 06:30:40;;;;;;;29.07;26.50;;;10.10;90.20;;;;;;5040099;28;20618;-88
2024/03/15 06:33:05;;;;;;;32.03;26.77;;;10.10;90.30;;;;;;5058024;28;20183;-88
2024/03/15 06:35:31;;;;;;;30.13;27.43;;;10.20;90.40;;;;;;5058228;28;20191;-88
2024/03/15 06:38:09;;;;;;;29.07;26.27;;;10.20;90.20;;;;;;5040106;28;20183;-88
2024/03/15 06:40:55;;;;;;;28.90;26.47;;;10.30;90.30;;;;;;5039877;28;20551;-88
2024/03/15 06:43:40;;;;;;;30.47;27.63;;;10.30;89.90;;;;;;5041277;28;20196;-88
2024/03/15 06:46:09;;;;;;;30.13;27.30;;;10.30;89.80;;;;;;5057994;28;20152;-89
2024/03/15 06:48:44;;;;;;;30.43;27.57;;;10.30;90.00;;;;;;5057679;28;20168;-88
2024/03/15 06:53:56;;;;;;;22.50;20.00;;;10.40;90.30;;;;;;5016841;28;20702;-87
2024/03/15 06:56:22;;;;;;;22.73;20.33;;;10.60;90.20;;;;;;5039716;28;20172;-88
2024/03/15 06:58:48;;;;;;;20.97;18.87;;;10.80;89.60;;;;;;5057563;28;20255;-88
2024/03/15 07:01:13;;;;;;;20.50;18.40;;;10.90;89.20;;;;;;5057851;28;20548;-88
2024/03/15 07:03:39;;;;;;;24.83;22.57;;;11.00;88.80;;;;;;5039536;28;20241;-87
2024/03/15 07:06:04;;;;;;;25.57;23.07;;;11.10;88.70;;;;;;5039756;28;20179;-88
2024/03/15 07:08:33;;;;;;;24.63;22.23;;;11.20;88.50;;;;;;5039531;28;20204;-88
2024/03/15 07:10:59;;;;;;;25.27;22.77;;;11.30;88.40;;;;;;5057238;28;20168;-88
2024/03/15 07:13:24;;;;;;;24.53;22.03;;;11.30;88.30;;;;;;5057545;28;20170;-87
2024/03/15 07:15:50;;;;;;;23.57;20.90;;;11.30;88.20;;;;;;5039339;28;20534;-87
2024/03/15 07:18:15;;;;;;;22.07;20.07;;;11.50;88.00;;;;;;5057278;28;20636;-88
2024/03/15 07:20:41;;;;;;;24.60;22.03;;;11.50;87.80;;;;;;5040243;28;20180;-87
2024/03/15 07:23:07;;;;;;;25.67;22.90;;;11.50;87.80;;;;;;5039120;28;20192;-87
2024/03/15 07:25:35;;;;;;;23.73;21.53;;;11.60;87.70;;;;;;5039055;28;20190;-87
2024/03/15 07:28:01;;;;;;;24.53;22.33;;;11.60;87.40;;;;;;5056924;28;20222;-87
2024/03/15 07:30:28;;;;;;;22.43;20.43;;;11.70;87.30;;;;;;5038758;28;20711;-87
2024/03/15 07:32:53;;;;;;;20.73;16.87;;;11.70;87.50;;;;;;5038598;28;20202;-87
2024/03/15 07:35:19;;;;;;;20.27;18.27;;;11.70;87.60;;;;;;5038234;28;20172;-87
2024/03/15 07:37:47;;;;;;;18.87;17.00;;;11.70;87.60;;;;;;5056083;28;20175;-87
2024/03/15 07:40:13;;;;;;;22.33;17.70;;;11.80;87.60;;;;;;5056540;28;20578;-86
2024/03/15 07:42:39;;;;;;;20.27;17.90;;;11.80;87.30;;;;;;5038596;28;20223;-86
2024/03/15 07:45:05;;;;;;;18.00;16.27;;;11.90;87.30;;;;;;5056850;28;20662;-87
2024/03/15 07:47:30;;;;;;;18.30;16.47;;;12.00;87.20;;;;;;5038529;28;20234;-85
2024/03/15 07:49:56;;;;;;;19.30;17.37;;;12.10;86.80;;;;;;5038836;28;20179;-87
2024/03/15 07:52:22;;;;;;;18.40;16.63;;;12.20;86.50;;;;;;5056212;28;20246;-86
2024/03/15 07:54:48;;;;;;;18.50;16.73;;;12.20;86.50;;;;;;5056481;28;20186;-87
2024/03/15 07:57:14;;;;;;;18.37;16.60;;;12.30;86.30;;;;;;5056621;28;20240;-87
2024/03/15 07:59:40;;;;;;;18.97;17.07;;;12.40;86.00;;;;;;5056170;28;20179;-87
2024/03/15 08:02:06;;;;;;;19.77;17.47;;;12.50;86.10;;;;;;5056435;28;20631;-87
2024/03/15 08:04:31;;;;;;;19.30;17.50;;;12.50;86.00;;;;;;5038353;28;20229;-86
2024/03/15 08:06:57;;;;;;;17.93;16.27;;;12.70;85.60;;;;;;5056282;28;20548;-87
2024/03/15 08:09:25;;;;;;;19.60;17.30;;;12.80;85.80;;;;;;5055971;28;20176;-86
2024/03/15 08:11:52;;;;;;;20.13;17.20;;;12.80;85.30;;;;;;5055976;28;20275;-87
2024/03/15 08:14:18;;;;;;;18.87;17.00;;;13.00;84.80;;;;;;5056190;28;20164;-86
2024/03/15 08:16:45;;;;;;;18.67;16.70;;;13.10;84.70;;;;;;5055797;28;20566;-87
2024/03/15 08:19:11;;;;;;;17.57;15.97;;;12.90;84.70;;;;;;5056167;28;20168;-86
2024/03/15 08:21:37;;;;;;;18.13;16.33;;;12.90;85.30;;;;;;5055813;28;20206;-87
2024/03/15 08:24:04;;;;;;;18.47;16.60;;;12.80;84.80;;;;;;5056087;28;20176;-87
2024/03/15 08:26:33;;;;;;;20.67;17.00;;;12.80;85.20;;;;;;5055775;28;20209;-87
2024/03/15 08:29:02;;;;;;;17.97;16.23;;;12.80;85.10;;;;;;5037737;28;20184;-86
2024/03/15 08:31:29;;;;;;;20.80;16.63;;;12.80;85.20;;;;;;5038144;28;20282;-87
2024/03/15 08:33:55;;;;;;;18.87;16.37;;;12.80;85.30;;;;;;5056009;28;20176;-87
2024/03/15 08:36:23;;;;;;;18.37;16.47;;;12.80;85.30;;;;;;5055848;28;20234;-86
2024/03/15 08:38:49;;;;;;;18.70;16.50;;;12.80;85.50;;;;;;5038676;28;20184;-87
2024/03/15 08:41:15;;;;;;;23.57;16.67;;;12.80;84.80;;;;;;5055410;28;20196;-89
2024/03/15 08:43:40;;;;;;;18.27;16.23;;;12.80;85.40;;;;;;5037607;28;20557;-86
2024/03/15 08:46:06;;;;;;;17.10;15.30;;;12.70;86.20;;;;;;5055661;28;20584;-87
2024/03/15 08:48:31;;;;;;;16.83;15.10;;;12.80;86.30;;;;;;5037053;28;20286;-86
2024/03/15 08:50:57;;;;;;;17.33;15.27;;;12.80;86.40;;;;;;5037358;28;20204;-88
2024/03/15 08:53:26;;;;;;;17.40;15.63;;;12.80;85.90;;;;;;5037670;28;20182;-86
2024/03/15 08:55:52;;;;;;;17.83;14.93;;;12.90;86.00;;;;;;5037021;28;20179;-86
2024/03/15 08:58:18;;;;;;;20.30;15.53;;;12.80;86.10;;;;;;5054970;28;20262;-86
2024/03/15 09:00:43;;;;;;;18.13;14.63;;;12.80;86.70;;;;;;5037347;28;20273;-87
2024/03/15 09:03:09;;;;;;;17.53;15.63;;;12.70;86.80;;;;;;5054712;28;20330;-88
2024/03/15 09:05:38;;;;;;;16.50;14.90;;;12.70;87.00;;;;;;5055058;28;20172;-87
2024/03/15 09:08:06;;;;;;;16.50;14.87;;;12.60;87.40;;;;;;5054776;28;20246;-87
2024/03/15 09:10:32;;;;;;;17.40;14.97;;;12.50;87.80;;;;;;5055081;28;20625;-87
2024/03/15 09:12:58;;;;;;;16.73;14.77;;;12.50;87.70;;;;;;5054829;28;20291;-87
2024/03/15 09:15:24;;;;;;;18.57;15.70;;;12.50;88.00;;;;;;5036455;28;20271;-87
2024/03/15 09:17:50;;;;;;;21.27;15.90;;;12.30;88.20;;;;;;5036457;28;20219;-87
2024/03/15 09:20:19;;;;;;;21.53;15.80;;;12.30;88.20;;;;;;5054556;28;20164;-86
2024/03/15 09:22:47;;;;;;;19.13;14.27;;;12.30;88.50;;;;;;5054257;28;20214;-88
2024/03/15 09:25:18;;;;;;;18.40;14.47;;;12.30;88.50;;;;;;5054168;28;20176;-87
2024/03/15 09:27:45;;;;;;;17.20;14.83;;;12.30;88.80;;;;;;5054278;28;20188;-88
2024/03/15 09:30:18;;;;;;;19.17;14.93;;;12.30;88.90;;;;;;5053991;28;20172;-87
2024/03/15 09:32:44;;;;;;;19.50;14.77;;;12.30;89.00;;;;;;5036207;28;20721;-87
2024/03/15 09:35:13;;;;;;;17.03;14.03;;;12.30;89.30;;;;;;5036140;28;20180;-88
2024/03/15 09:37:49;;;;;;;16.47;14.73;;;12.30;89.20;;;;;;5036044;28;20176;-86
2024/03/15 09:40:15;;;;;;;19.17;14.43;;;12.30;89.40;;;;;;5036234;28;20195;-88
2024/03/15 09:42:43;;;;;;;15.67;14.00;;;12.30;89.40;;;;;;5035881;28;20668;-87
2024/03/15 09:45:12;;;;;;;16.33;14.33;;;12.40;89.70;;;;;;5053739;28;20198;-87
2024/03/15 09:47:40;;;;;;;15.10;11.50;;;12.50;89.80;;;;;;5053622;28;20718;-87
2024/03/15 09:50:12;;;;;;;16.17;14.43;;;12.50;89.70;;;;;;5035859;28;20608;-89
2024/03/15 09:52:38;;;;;;;15.73;14.03;;;12.60;89.80;;;;;;5035978;28;20192;-87
2024/03/15 09:55:16;;;;;;;17.13;14.60;;;12.70;89.90;;;;;;5053736;28;20178;-87
2024/03/15 09:57:43;;;;;;;15.57;14.07;;;12.80;89.90;;;;;;5053622;28;20158;-87
2024/03/15 10:00:16;;;;;;;16.97;13.20;;;12.80;89.40;;;;;;5053078;28;20686;-88
2024/03/15 10:02:45;;;;;;;17.73;13.83;;;12.80;89.50;;;;;;5035725;28;20195;-87
2024/03/15 10:05:20;;;;;;;16.00;14.33;;;12.80;89.50;;;;;;5035705;28;20176;-87
2024/03/15 10:07:46;;;;;;;16.23;14.60;;;12.80;89.50;;;;;;5035892;28;20207;-88
2024/03/15 10:10:12;;;;;;;16.60;14.87;;;12.90;89.60;;;;;;5036332;28;20176;-87
2024/03/15 10:12:47;;;;;;;17.33;15.03;;;12.90;89.30;;;;;;5035903;28;20628;-87
2024/03/15 10:15:18;;;;;;;17.10;15.27;;;12.90;89.30;;;;;;5055138;28;20166;-89
2024/03/15 10:17:46;;;;;;;17.67;15.57;;;13.00;89.40;;;;;;5053202;28;20171;-89
2024/03/15 10:20:20;;;;;;;17.73;15.00;;;12.90;90.00;;;;;;5053114;28;20175;-89
2024/03/15 10:22:48;;;;;;;17.50;15.60;;;12.90;90.20;;;;;;5053285;28;20196;-89
2024/03/15 10:25:16;;;;;;;18.37;16.37;;;12.80;90.50;;;;;;5053123;28;20176;-89
2024/03/15 10:27:49;;;;;;;18.60;16.37;;;12.90;90.40;;;;;;5053111;28;20712;-89
2024/03/15 10:30:16;;;;;;;15.77;14.17;;;13.00;90.20;;;;;;5053132;28;20172;-88
2024/03/15 10:32:46;;;;;;;17.00;15.30;;;13.00;90.00;;;;;;5053073;28;20222;-89
2024/03/15 10:35:12;;;;;;;16.67;14.97;;;13.00;89.80;;;;;;5035368;28;20172;-89
2024/03/15 10:37:42;;;;;;;18.57;16.73;;;13.10;89.40;;;;;;5035175;28;20198;-89
2024/03/15 10:40:14;;;;;;;16.53;14.93;;;13.20;89.50;;;;;;5035101;28;20176;-89
2024/03/15 10:42:49;;;;;;;18.70;16.87;;;13.20;89.30;;;;;;5052886;28;20558;-88
2024/03/15 10:45:26;;;;;;;21.03;18.93;;;13.10;89.20;;;;;;5035177;28;20605;-87
2024/03/15 10:47:55;;;;;;;19.27;17.27;;;13.20;89.40;;;;;;5053181;28;20558;-88
2024/03/15 10:50:23;;;;;;;21.27;19.03;;;13.20;89.20;;;;;;5034969;28;20176;-88
2024/03/15 10:52:53;;;;;;;18.87;17.07;;;13.30;89.20;;;;;;5034933;28;20333;-89
2024/03/15 10:55:24;;;;;;;22.83;17.40;;;13.30;88.90;;;;;;5052898;28;20176;-87
2024/03/15 10:57:53;;;;;;;20.37;17.50;;;13.30;88.90;;;;;;5052830;28;20163;-89
2024/03/15 11:00:26;;;;;;;19.43;17.30;;;13.40;88.90;;;;;;5035032;28;20176;-88
2024/03/15 11:02:56;;;;;;;23.37;21.27;;;13.30;88.90;;;;;;5053198;28;20192;-87
2024/03/15 11:05:23;;;;;;;23.50;21.30;;;13.40;88.70;;;;;;5052936;28;20204;-88
2024/03/15 11:08:10;;;;;;;23.67;20.97;;;13.40;88.60;;;;;;5035690;28;20203;-87
2024/03/15 11:10:36;;;;;;;22.37;19.97;;;13.50;89.00;;;;;;5029265;28;20180;-87
2024/03/15 11:13:07;;;;;;;21.33;19.33;;;13.40;89.00;;;;;;5038420;28;20216;-88
2024/03/15 11:15:35;;;;;;;21.83;19.83;;;13.30;88.90;;;;;;5038705;28;20624;-88
2024/03/15 11:18:08;;;;;;;22.50;20.40;;;13.40;89.00;;;;;;5056450;28;20176;-87
2024/03/15 11:20:49;;;;;;;21.87;19.90;;;13.50;89.20;;;;;;5056445;28;20618;-87
2024/03/15 11:23:17;;;;;;;24.00;20.07;;;13.50;89.00;;;;;;5056356;28;20550;-89
2024/03/15 11:26:07;;;;;;;21.83;19.80;;;13.50;88.80;;;;;;5038680;28;20172;-88
2024/03/15 11:28:34;;;;;;;16.97;15.40;;;13.60;88.40;;;;;;5038269;28;20200;-88
2024/03/15 11:31:00;;;;;;;18.90;17.27;;;13.60;88.10;;;;;;5038321;28;20670;-88
2024/03/15 11:33:27;;;;;;;19.10;17.40;;;13.80;88.00;;;;;;5056216;28;20168;-88
2024/03/15 11:35:53;;;;;;;19.38;17.77;;;14.00;87.70;;;;;;5056349;28;20207;-87
2024/03/15 11:38:20;;;;;;;18.92;17.13;;;14.10;87.30;;;;;;5038195;28;20175;-88
2024/03/15 11:40:46;;;;;;;19.63;17.83;;;14.10;87.30;;;;;;5055988;28;20218;-87
2024/03/15 11:43:13;;;;;;;20.40;18.60;;;14.10;87.10;;;;;;5038198;28;20687;-88
2024/03/15 11:45:41;;;;;;;19.92;18.23;;;14.10;87.50;;;;;;5055922;28;20183;-88
2024/03/15 11:48:21;;;;;;;18.03;16.33;;;14.00;87.10;;;;;;5055844;28;20192;-88
2024/03/15 11:50:49;;;;;;;16.23;14.52;;;13.90;87.40;;;;;;5038830;28;20182;-88
2024/03/15 11:53:16;;;;;;;17.88;15.98;;;13.80;87.50;;;;;;5055962;28;20310;-87
2024/03/15 11:55:42;;;;;;;18.07;15.90;;;13.80;87.80;;;;;;5038098;28;20227;-87
2024/03/15 11:58:14;;;;;;;19.40;17.40;;;13.90;87.80;;;;;;5056211;28;20179;-88
2024/03/15 12:00:40;;;;;;;18.10;16.33;;;13.90;87.70;;;;;;5037902;28;20259;-88
2024/03/15 12:03:10;;;;;;;17.70;15.83;;;13.90;87.30;;;;;;5037580;28;20254;-88
2024/03/15 12:05:41;;;;;;;17.65;15.60;;;13.90;87.00;;;;;;5055580;28;20180;-88
2024/03/15 12:08:23;;;;;;;18.87;15.70;;;13.90;86.60;;;;;;5055444;28;20570;-89
2024/03/15 12:10:50;;;;;;;16.87;15.30;;;13.90;86.60;;;;;;5037546;28;20156;-87
2024/03/15 12:13:23;;;;;;;17.53;15.73;;;13.90;86.40;;;;;;5037667;28;20614;-87
2024/03/15 12:15:50;;;;;;;16.60;14.90;;;13.80;86.80;;;;;;5038049;28;20168;-88
2024/03/15 12:18:21;;;;;;;17.00;15.47;;;13.70;86.20;;;;;;5038657;28;20586;-87
2024/03/15 12:20:47;;;;;;;18.10;16.37;;;13.70;86.30;;;;;;5037489;28;20174;-88
2024/03/15 12:23:14;;;;;;;16.50;15.07;;;13.70;86.80;;;;;;5054701;28;20598;-88
2024/03/15 12:25:45;;;;;;;14.40;12.90;;;13.70;86.40;;;;;;5055308;28;20176;-88
2024/03/15 12:28:15;;;;;;;16.10;14.63;;;13.90;85.40;;;;;;5037517;28;20204;-88
2024/03/15 12:30:45;;;;;;;16.97;15.23;;;14.00;84.50;;;;;;5037375;28;20164;-87